Allen, Alabama
Current Conditions -  °F | °C
As of 2:53 AM on Wednesday 26 Nov 2014 (Local Time) from KGZH Reporting Station
Clear Clear  
Wind Chill: 42°   Ceiling: Unl
Heat Index: 44°   Visibility: 10mi
Dew Point: 30°   Wind: 5mph
Humidity: 58%   Direction: NA
Pressure: 30.15"   Gusts: NA
Location:  31.6°N, 87.71°W
Report Text: KGZH 260853Z AUTO VRB04KT 10SM CLR 07/M01 A3015 RMK AO2 SLP208 60000 T00671011 53013
Loading
Personal Weather Stations






























Interactive Weather Map New forecast layout! Learn more

10-Day Weather Forecast

Advertisements
Track Severe Weather on mobile